»·PEaware :: SWA2591 KLAS-KBUR

SWA2591 :: KLAS-KBUR

FLIGHT INFORMATION

Flight Status: Arrived
Operator:
Southwest Airlines
More flights by this operator :: More flights under this callsign
Pilot: Cody B. (17747)
Aircraft: BOEING 737-800
(B738)
More flights by this aircraft type
Origin: KLAS McCarran Intl
United States
Destination: KBUR Bob Hope-Burbank
United States
More flights between these airports :: More routes between these airports
Route: BOACH8 WHIGG KREME JANNY5
File this flight plan on PilotEdge
Remarks: PBN / A1B1C1D1S1S2 DOF / 181002 REG / N8301J CODE / AB5ADE OPR / SWA PER / C RMK / TCAS SIMBRIEF
Altitude:
(Current/Filed)
28,000ft
Speed:
(Current/Filed)
480kts
Departed: 02-Oct-18 01:53 PM
Arrived: 02-Oct-18 02:44 PM
Distance/Time
Traveled:
193nm/0:50
Distance/Time
To Go:
Arrived

Flight Plot

Page will automatically refresh every two minutes.

Flight plan parsing failed; only flown route is shown


Map Options




Map Legend


Flown Route
Filed Route
Departure Airport
Arrival Airport
Navaid (VOR, NDB)
Fix

Horizontal Profiles

Position Reports

Time Latitude Longitude Heading Altitude Ground
Speed
02-Oct-18 13:26 36.082535 -115.151383 45 2189ft 0kts
02-Oct-18 13:27 36.082535 -115.151383 45 2189ft 0kts
02-Oct-18 13:28 36.082535 -115.151383 45 2189ft 0kts
02-Oct-18 13:29 36.082535 -115.151383 45 2189ft 0kts
02-Oct-18 13:30 36.082535 -115.151383 45 2189ft 0kts
02-Oct-18 13:31 36.082535 -115.151383 45 2189ft 0kts
02-Oct-18 13:32 36.082535 -115.151383 45 2189ft 0kts
02-Oct-18 13:33 36.082535 -115.151383 45 2189ft 0kts
02-Oct-18 13:34 36.082535 -115.151384 45 2189ft 0kts
02-Oct-18 13:35 36.082114 -115.151695 30 2189ft 2kts
02-Oct-18 13:36 36.081634 -115.152045 30 2189ft 2kts
02-Oct-18 13:37 36.081212 -115.152353 30 2189ft 2kts
02-Oct-18 13:38 36.081005 -115.152666 102 2189ft 1kts
02-Oct-18 13:39 36.081009 -115.152688 103 2189ft 0kts
02-Oct-18 13:40 36.081005 -115.152664 102 2189ft 0kts
02-Oct-18 13:41 36.080833 -115.151720 107 2189ft 7kts
02-Oct-18 13:42 36.079416 -115.151112 179 2189ft 5kts
02-Oct-18 13:43 36.079141 -115.151106 179 2189ft 0kts
02-Oct-18 13:44 36.078136 -115.150544 123 2189ft 8kts
02-Oct-18 13:45 36.078026 -115.148425 51 2189ft 5kts
02-Oct-18 13:46 36.078436 -115.145924 95 2189ft 11kts
02-Oct-18 13:47 36.078272 -115.141964 89 2189ft 12kts
02-Oct-18 13:48 36.078272 -115.137444 89 2189ft 15kts
02-Oct-18 13:49 36.078279 -115.131659 89 2189ft 18kts
02-Oct-18 13:50 36.078280 -115.124780 89 2189ft 20kts
02-Oct-18 13:51 36.077401 -115.121399 141 2189ft 0kts
02-Oct-18 13:52 36.077401 -115.121399 141 2189ft 0kts
02-Oct-18 13:53 36.077401 -115.121399 141 2189ft 0kts
02-Oct-18 13:54 36.076506 -115.121492 243 2189ft 6kts
02-Oct-18 13:55 36.076432 -115.127915 269 2189ft 66kts
02-Oct-18 13:56 36.076098 -115.178117 268 3064ft 181kts
02-Oct-18 13:57 36.067815 -115.246281 237 4699ft 246kts
02-Oct-18 13:58 36.003562 -115.287682 197 7013ft 282kts
02-Oct-18 13:59 35.927391 -115.307659 186 9350ft 285kts
02-Oct-18 14:00 35.847871 -115.315333 177 12020ft 315kts
02-Oct-18 14:01 35.760845 -115.304300 175 15190ft 322kts
02-Oct-18 14:02 35.673712 -115.317273 206 18116ft 329kts
02-Oct-18 14:03 35.605571 -115.392740 224 20784ft 339kts
02-Oct-18 14:04 35.541967 -115.478179 224 23190ft 346kts
02-Oct-18 14:05 35.475037 -115.563471 221 25389ft 350kts
02-Oct-18 14:06 35.404625 -115.646747 221 27363ft 356kts
02-Oct-18 14:07 35.336866 -115.726880 222 27970ft 377kts
02-Oct-18 14:08 35.259228 -115.818626 222 27962ft 397kts
02-Oct-18 14:09 35.181303 -115.910507 222 27938ft 373kts
02-Oct-18 14:10 35.108589 -115.996021 222 27958ft 366kts
02-Oct-18 14:11 35.035577 -116.081703 222 27956ft 367kts
02-Oct-18 14:12 34.962238 -116.167499 223 27971ft 368kts
02-Oct-18 14:13 34.900573 -116.265496 242 27027ft 368kts
02-Oct-18 14:14 34.861727 -116.365568 243 25408ft 362kts
02-Oct-18 14:15 34.819611 -116.474017 243 23618ft 357kts
02-Oct-18 14:16 34.784392 -116.584753 259 22927ft 358kts
02-Oct-18 14:17 34.773794 -116.695740 260 22931ft 359kts
02-Oct-18 14:18 34.762710 -116.810421 260 21949ft 355kts
02-Oct-18 14:19 34.751030 -116.928455 260 20770ft 350kts
02-Oct-18 14:20 34.739415 -117.043672 258 19360ft 346kts
02-Oct-18 14:21 34.727690 -117.158873 257 18099ft 342kts
02-Oct-18 14:22 34.715902 -117.272702 258 17111ft 340kts
02-Oct-18 14:23 34.704187 -117.385157 258 16122ft 336kts
02-Oct-18 14:24 34.692439 -117.496837 258 15127ft 333kts
02-Oct-18 14:25 34.680730 -117.606823 259 14135ft 330kts
02-Oct-18 14:26 34.669661 -117.710874 258 13771ft 331kts
02-Oct-18 14:27 34.657927 -117.820693 258 13763ft 336kts
02-Oct-18 14:28 34.645891 -117.931933 258 13771ft 336kts
02-Oct-18 14:29 34.633812 -118.042094 259 13067ft 334kts
02-Oct-18 14:30 34.613401 -118.145920 252 11437ft 327kts
02-Oct-18 14:31 34.591357 -118.244686 252 10252ft 281kts
02-Oct-18 14:32 34.571570 -118.333446 251 9432ft 269kts
02-Oct-18 14:33 34.552379 -118.420521 252 8434ft 268kts
02-Oct-18 14:34 34.533746 -118.506670 252 7413ft 257kts
02-Oct-18 14:35 34.518019 -118.579543 252 6503ft 247kts
02-Oct-18 14:36 34.500248 -118.654591 232 5800ft 240kts
02-Oct-18 14:37 34.453591 -118.638911 122 5008ft 221kts
02-Oct-18 14:38 34.424707 -118.578207 121 4978ft 201kts
02-Oct-18 14:39 34.391147 -118.528741 149 4812ft 195kts
02-Oct-18 14:40 34.352955 -118.490716 134 4376ft 175kts
02-Oct-18 14:41 34.322268 -118.447642 123 4082ft 174kts
02-Oct-18 14:42 34.298239 -118.404214 126 3372ft 159kts
02-Oct-18 14:43 34.269616 -118.375428 165 2384ft 143kts
02-Oct-18 14:44 34.232666 -118.365938 165 1407ft 147kts
02-Oct-18 14:45 34.200767 -118.357263 167 785ft 70kts
02-Oct-18 14:46 34.197129 -118.355644 66 785ft 0kts
02-Oct-18 14:47 34.197142 -118.355605 67 785ft 0kts
02-Oct-18 14:48 34.197197 -118.353697 90 785ft 7kts
02-Oct-18 14:49 34.197159 -118.351068 91 785ft 8kts
02-Oct-18 14:50 34.196864 -118.350166 176 785ft 3kts
02-Oct-18 14:51 34.196763 -118.350160 177 785ft 0kts
02-Oct-18 14:52 34.196763 -118.350160 177 785ft 0kts
02-Oct-18 14:53 34.196763 -118.350160 177 785ft 0kts
02-Oct-18 14:54 34.196763 -118.350160 177 785ft 0kts
02-Oct-18 14:55 34.196763 -118.350160 177 785ft 0kts
02-Oct-18 14:56 34.196763 -118.350160 177 785ft 0kts
02-Oct-18 14:57 34.196763 -118.350160 177 785ft 0kts
02-Oct-18 14:58 34.196763 -118.350160 177 785ft 0kts
02-Oct-18 14:59 34.196763 -118.350160 177 785ft 0kts
02-Oct-18 15:00 34.196763 -118.350160 177 785ft 0kts

Navigation Log

Ident Type
Flight plan parsing failed, navigation log unavailable